Time;durP1;ratioP1;P1;durP2;ratioP2;P2;SDS_P1;SDS_P2;PMS_P1;PMS_P2;Temp;Humidity;BMP_temperature;BMP_pressure;BME280_temperature;BME280_humidity;BME280_pressure;Samples;Min_cycle;Max_cycle;Signal;HPM_P1;HPM_P2
2022/04/23 00:02:18;;;;;;;9.57;4.57;;;8.50;99.90;;;;;;5092446;27;20579;-46
2022/04/23 00:04:45;;;;;;;8.47;4.90;;;8.40;99.90;;;;;;5086208;28;20218;-47
2022/04/23 00:07:12;;;;;;;8.10;4.93;;;8.30;99.90;;;;;;5089923;28;20209;-49
2022/04/23 00:09:39;;;;;;;5.00;4.30;;;8.30;99.90;;;;;;5085951;27;20197;-45
2022/04/23 00:12:06;;;;;;;7.33;5.40;;;8.20;99.90;;;;;;5080841;27;20217;-47
2022/04/23 00:14:33;;;;;;;5.50;4.70;;;8.20;99.90;;;;;;5111231;27;20196;-44
2022/04/23 00:17:02;;;;;;;11.10;5.80;;;8.20;99.90;;;;;;5094313;27;20197;-49
2022/04/23 00:19:28;;;;;;;8.93;5.20;;;8.10;99.90;;;;;;5095698;28;20197;-46
2022/04/23 00:21:55;;;;;;;9.33;5.23;;;8.10;99.90;;;;;;5092721;28;20264;-44
2022/04/23 00:24:22;;;;;;;7.40;5.53;;;8.10;99.90;;;;;;5096638;27;20201;-48
2022/04/23 00:26:49;;;;;;;6.63;5.57;;;8.00;99.90;;;;;;5093278;27;20207;-44
2022/04/23 00:29:17;;;;;;;7.93;5.97;;;8.00;99.90;;;;;;5099786;27;20205;-44
2022/04/23 00:31:43;;;;;;;7.03;5.93;;;7.90;99.90;;;;;;5101235;27;20936;-45
2022/04/23 00:34:12;;;;;;;8.73;6.10;;;7.90;99.90;;;;;;5091390;28;20220;-48
2022/04/23 00:36:39;;;;;;;8.43;6.17;;;7.90;99.90;;;;;;5083547;28;20193;-50
2022/04/23 00:39:06;;;;;;;7.40;6.33;;;7.80;99.90;;;;;;5091349;28;20719;-51
2022/04/23 00:41:45;;;;;;;8.57;6.17;;;7.80;99.90;;;;;;5084373;27;20878;-47
2022/04/23 00:44:13;;;;;;;6.90;6.13;;;7.70;99.90;;;;;;5090659;27;20223;-45
2022/04/23 00:46:40;;;;;;;7.33;6.47;;;7.70;99.90;;;;;;5106757;27;20216;-49
2022/04/23 00:49:07;;;;;;;8.40;6.60;;;7.70;99.90;;;;;;5087139;27;20691;-44
2022/04/23 00:51:35;;;;;;;9.33;6.97;;;7.60;99.90;;;;;;5095076;28;20236;-49
2022/04/23 00:54:05;;;;;;;9.10;6.97;;;7.50;99.90;;;;;;5095060;28;20212;-49
2022/04/23 00:56:32;;;;;;;8.80;6.87;;;7.70;99.90;;;;;;5094143;27;20209;-49
2022/04/23 00:58:59;;;;;;;7.40;6.40;;;7.50;99.90;;;;;;5076370;27;20200;-48
2022/04/23 01:01:26;;;;;;;9.67;7.17;;;7.50;99.90;;;;;;5107478;27;20186;-44
2022/04/23 01:03:54;;;;;;;7.50;6.80;;;7.50;99.90;;;;;;5080593;27;20208;-47
2022/04/23 01:06:23;;;;;;;10.50;7.17;;;7.50;99.90;;;;;;5102168;28;20193;-47
2022/04/23 01:08:52;;;;;;;11.70;8.27;;;6.90;99.90;;;;;;5082191;28;20269;-48
2022/04/23 01:11:18;;;;;;;12.43;7.90;;;7.40;99.90;;;;;;5096863;28;20217;-49
2022/04/23 01:13:45;;;;;;;11.30;8.00;;;7.40;99.90;;;;;;5085677;28;20270;-48
2022/04/23 01:16:12;;;;;;;10.40;8.07;;;7.40;99.90;;;;;;5078268;27;20206;-45
2022/04/23 01:18:43;;;;;;;13.83;8.40;;;7.40;99.90;;;;;;5099943;27;20198;-47
2022/04/23 01:21:13;;;;;;;9.97;7.40;;;7.40;99.90;;;;;;5088636;28;20198;-48
2022/04/23 01:23:41;;;;;;;12.93;8.73;;;7.30;99.90;;;;;;5081954;28;20236;-50
2022/04/23 01:26:09;;;;;;;11.17;7.93;;;7.30;99.90;;;;;;5093221;28;20205;-47
2022/04/23 01:28:37;;;;;;;11.97;7.97;;;7.20;99.90;;;;;;5092554;28;20277;-49
2022/04/23 01:31:06;;;;;;;9.43;8.13;;;7.20;99.90;;;;;;5091449;27;20213;-48
2022/04/23 01:33:34;;;;;;;10.33;7.67;;;7.20;99.90;;;;;;5093787;27;20304;-51
2022/04/23 01:36:02;;;;;;;11.80;8.47;;;7.20;99.90;;;;;;5089158;28;20205;-46
2022/04/23 01:38:30;;;;;;;13.10;8.20;;;7.20;99.90;;;;;;5096996;28;20281;-46
2022/04/23 01:40:57;;;;;;;12.73;8.83;;;7.10;99.90;;;;;;5096238;28;20182;-45
2022/04/23 01:43:24;;;;;;;14.57;8.87;;;7.10;99.90;;;;;;5098597;28;20237;-48
2022/04/23 01:45:51;;;;;;;12.33;8.47;;;7.10;99.90;;;;;;5088049;28;20204;-48
2022/04/23 01:48:18;;;;;;;13.07;9.30;;;7.10;99.90;;;;;;5096423;27;20201;-44
2022/04/23 01:50:45;;;;;;;14.17;8.80;;;7.10;99.90;;;;;;5093920;27;20198;-46
2022/04/23 01:53:11;;;;;;;13.23;9.33;;;7.10;99.90;;;;;;5102575;28;20236;-45
2022/04/23 01:55:40;;;;;;;14.93;10.07;;;7.00;99.90;;;;;;5102513;27;20684;-45
2022/04/23 01:58:07;;;;;;;11.53;8.50;;;7.00;99.90;;;;;;5083109;28;20194;-47
2022/04/23 02:00:33;;;;;;;16.70;10.70;;;6.90;99.90;;;;;;5091716;27;20568;-50
2022/04/23 02:03:01;;;;;;;13.60;9.03;;;6.90;99.90;;;;;;5095658;27;20211;-49
2022/04/23 02:05:28;;;;;;;18.37;9.60;;;6.90;99.90;;;;;;5107164;27;20563;-45
2022/04/23 02:07:55;;;;;;;15.97;10.50;;;6.80;99.90;;;;;;5106600;27;20270;-45
2022/04/23 02:10:22;;;;;;;15.87;10.20;;;6.80;99.90;;;;;;5085100;28;20193;-46
2022/04/23 02:12:51;;;;;;;14.10;10.23;;;6.80;99.90;;;;;;5080016;28;20279;-45
2022/04/23 02:15:18;;;;;;;18.13;11.00;;;6.80;99.90;;;;;;5088286;28;20669;-47
2022/04/23 02:17:47;;;;;;;14.40;11.20;;;6.80;99.90;;;;;;5076869;28;20194;-46
2022/04/23 02:20:17;;;;;;;14.43;10.33;;;6.80;99.90;;;;;;5111457;28;20199;-45
2022/04/23 02:22:44;;;;;;;15.70;10.70;;;6.80;99.90;;;;;;5093779;28;20221;-49
2022/04/23 02:25:12;;;;;;;18.23;11.80;;;6.70;99.90;;;;;;5096361;28;20662;-46
2022/04/23 02:27:43;;;;;;;14.33;10.60;;;6.70;99.90;;;;;;5085901;28;20231;-47
2022/04/23 02:30:13;;;;;;;18.10;12.07;;;6.70;99.90;;;;;;5086447;28;20201;-48
2022/04/23 02:32:41;;;;;;;15.43;11.07;;;6.70;99.90;;;;;;5079447;28;20225;-47
2022/04/23 02:35:08;;;;;;;20.63;12.53;;;6.70;99.90;;;;;;5109888;28;20206;-45
2022/04/23 02:37:35;;;;;;;13.30;10.77;;;6.60;99.90;;;;;;5085606;28;20296;-47
2022/04/23 02:40:03;;;;;;;20.90;12.03;;;6.60;99.90;;;;;;5088407;28;20255;-46
2022/04/23 02:42:30;;;;;;;17.27;12.07;;;6.60;99.90;;;;;;5090315;28;20346;-47
2022/04/23 02:45:01;;;;;;;18.50;11.83;;;6.70;99.90;;;;;;5082605;28;20236;-45
2022/04/23 02:47:29;;;;;;;16.53;12.50;;;6.60;99.90;;;;;;5104275;28;20200;-47
2022/04/23 02:49:55;;;;;;;19.40;12.60;;;6.60;99.90;;;;;;5086274;27;20204;-44
2022/04/23 02:52:22;;;;;;;16.63;12.30;;;6.60;99.90;;;;;;5106971;27;20590;-46
2022/04/23 02:54:50;;;;;;;18.20;12.30;;;6.60;99.90;;;;;;5088668;27;20194;-44
2022/04/23 02:57:17;;;;;;;19.83;13.03;;;6.60;99.90;;;;;;5089570;28;20197;-47
2022/04/23 02:59:44;;;;;;;20.67;12.13;;;6.50;99.90;;;;;;5090184;28;20273;-45
2022/04/23 03:02:11;;;;;;;20.40;12.47;;;6.50;99.90;;;;;;5103035;28;20222;-46
2022/04/23 03:04:39;;;;;;;18.87;13.07;;;6.50;99.90;;;;;;5080529;27;20214;-46
2022/04/23 03:07:05;;;;;;;19.37;13.73;;;6.50;99.90;;;;;;5102550;27;20190;-47
2022/04/23 03:09:32;;;;;;;23.23;13.70;;;6.50;99.90;;;;;;5092843;27;20688;-47
2022/04/23 03:11:59;;;;;;;20.07;13.63;;;6.50;99.90;;;;;;5093108;28;20217;-48
2022/04/23 03:14:26;;;;;;;22.87;14.63;;;6.40;99.90;;;;;;5087248;28;20210;-46
2022/04/23 03:16:53;;;;;;;25.67;13.70;;;6.50;99.90;;;;;;5093791;28;20205;-45
2022/04/23 03:19:20;;;;;;;18.43;13.93;;;6.40;99.90;;;;;;5098399;28;20203;-45
2022/04/23 03:21:48;;;;;;;19.33;13.00;;;6.40;99.90;;;;;;5085383;27;20295;-45
2022/04/23 03:24:15;;;;;;;23.90;14.47;;;6.40;99.90;;;;;;5114797;27;20205;-48
2022/04/23 03:26:43;;;;;;;23.70;15.63;;;6.40;99.90;;;;;;5093848;28;20206;-46
2022/04/23 03:29:10;;;;;;;26.30;14.70;;;6.40;99.90;;;;;;5087465;28;20207;-47
2022/04/23 03:31:37;;;;;;;20.90;13.90;;;6.30;99.90;;;;;;5098350;27;20220;-48
2022/04/23 03:34:05;;;;;;;19.17;14.43;;;6.30;99.90;;;;;;5110975;27;20194;-44
2022/04/23 03:36:32;;;;;;;18.10;13.60;;;6.30;99.90;;;;;;5092185;27;20210;-49
2022/04/23 03:39:00;;;;;;;21.47;14.77;;;6.30;99.90;;;;;;5103466;27;20186;-44
2022/04/23 03:41:26;;;;;;;21.80;15.53;;;6.30;99.90;;;;;;5093941;28;20206;-44
2022/04/23 03:43:55;;;;;;;19.87;13.83;;;6.20;99.90;;;;;;5083586;28;20197;-44
2022/04/23 03:46:22;;;;;;;23.73;14.53;;;6.30;99.90;;;;;;5090828;27;20197;-44
2022/04/23 03:48:49;;;;;;;21.80;15.07;;;6.20;99.90;;;;;;5092928;28;20197;-47
2022/04/23 03:51:16;;;;;;;24.17;14.90;;;6.20;99.90;;;;;;5091945;28;20207;-45
2022/04/23 03:53:43;;;;;;;21.70;15.60;;;6.10;99.90;;;;;;5102702;27;20217;-47
2022/04/23 03:56:11;;;;;;;25.33;16.17;;;6.10;99.90;;;;;;5103781;27;20210;-46
2022/04/23 03:58:38;;;;;;;23.63;16.40;;;6.10;99.90;;;;;;5089286;27;20272;-46
2022/04/23 04:01:05;;;;;;;22.20;16.03;;;6.10;99.90;;;;;;5106692;27;20211;-44
2022/04/23 04:03:32;;;;;;;23.57;16.50;;;6.10;99.90;;;;;;5088733;27;20317;-48
2022/04/23 04:05:59;;;;;;;29.53;16.47;;;6.10;99.90;;;;;;5083446;28;20284;-46
2022/04/23 04:08:27;;;;;;;22.83;16.63;;;6.10;99.90;;;;;;5086321;27;20233;-44
2022/04/23 04:10:53;;;;;;;26.07;16.30;;;6.10;99.90;;;;;;5097095;27;20204;-50
2022/04/23 04:13:23;;;;;;;23.93;15.47;;;6.10;99.90;;;;;;5096460;28;20233;-46
2022/04/23 04:15:51;;;;;;;24.30;15.07;;;6.10;99.90;;;;;;5085857;28;20197;-46
2022/04/23 04:18:18;;;;;;;28.00;16.10;;;6.10;99.90;;;;;;5086845;27;20197;-46
2022/04/23 04:20:48;;;;;;;28.47;16.27;;;6.10;99.90;;;;;;5089898;28;20205;-50
2022/04/23 04:23:15;;;;;;;19.97;15.67;;;6.00;99.90;;;;;;5085352;27;20219;-44
2022/04/23 04:25:43;;;;;;;25.17;15.93;;;6.00;99.90;;;;;;5117190;27;20243;-44
2022/04/23 04:28:10;;;;;;;22.33;15.40;;;6.00;99.90;;;;;;5093853;27;20205;-44
2022/04/23 04:33:19;;;;;;;22.93;15.67;;;6.00;99.90;;;;;;5101202;27;20234;-44
2022/04/23 04:35:46;;;;;;;24.30;15.93;;;6.00;99.90;;;;;;5087723;28;20198;-48
2022/04/23 04:38:16;;;;;;;24.13;16.77;;;6.10;99.90;;;;;;5077307;27;20201;-45
2022/04/23 04:40:43;;;;;;;25.83;16.97;;;6.10;99.90;;;;;;5116022;27;20247;-47
2022/04/23 04:43:10;;;;;;;24.57;15.53;;;6.10;99.90;;;;;;5096608;27;20239;-44
2022/04/23 04:45:38;;;;;;;25.63;16.67;;;6.10;99.90;;;;;;5098927;28;20204;-48
2022/04/23 04:48:05;;;;;;;25.70;17.10;;;6.10;99.90;;;;;;5084483;28;20193;-46
2022/04/23 04:50:32;;;;;;;25.03;16.63;;;6.20;99.90;;;;;;5091372;27;20202;-47
2022/04/23 04:52:58;;;;;;;24.37;17.87;;;6.20;99.90;;;;;;5079279;27;20341;-46
2022/04/23 04:55:25;;;;;;;27.03;16.63;;;6.20;99.90;;;;;;5104214;27;20665;-45
2022/04/23 04:57:52;;;;;;;28.77;17.27;;;6.20;99.90;;;;;;5090847;27;20201;-48
2022/04/23 05:00:20;;;;;;;26.83;16.90;;;6.20;99.90;;;;;;5092027;27;20197;-46
2022/04/23 05:02:48;;;;;;;27.00;16.67;;;6.20;99.90;;;;;;5093527;27;20249;-46
2022/04/23 05:05:15;;;;;;;27.93;16.67;;;6.20;99.90;;;;;;5091357;27;20205;-43
2022/04/23 05:07:41;;;;;;;27.30;17.43;;;6.20;99.90;;;;;;5096582;28;20212;-49
2022/04/23 05:10:09;;;;;;;28.33;17.73;;;6.20;99.90;;;;;;5079386;27;20206;-46
2022/04/23 05:12:35;;;;;;;26.13;16.27;;;6.30;99.90;;;;;;5099918;27;20206;-48
2022/04/23 05:15:03;;;;;;;26.37;17.00;;;6.30;99.90;;;;;;5113386;27;20200;-44
2022/04/23 05:17:29;;;;;;;22.67;15.87;;;6.40;99.90;;;;;;5094545;28;20704;-46
2022/04/23 05:19:58;;;;;;;21.87;15.60;;;6.40;99.90;;;;;;5094228;27;20205;-49
2022/04/23 05:22:25;;;;;;;24.33;16.10;;;6.40;99.90;;;;;;5101187;27;20214;-39
2022/04/23 05:24:52;;;;;;;23.27;16.50;;;6.50;99.90;;;;;;5082862;27;20335;-40
2022/04/23 05:27:18;;;;;;;24.63;16.30;;;6.60;99.90;;;;;;5093804;27;20197;-39
2022/04/23 05:29:45;;;;;;;23.30;16.63;;;6.60;99.90;;;;;;5094630;27;20247;-41
2022/04/23 05:32:12;;;;;;;24.10;16.00;;;6.60;99.90;;;;;;5092270;28;20217;-39
2022/04/23 05:34:39;;;;;;;24.33;15.57;;;6.70;99.90;;;;;;5087566;28;20206;-41
2022/04/23 05:37:07;;;;;;;23.83;15.63;;;6.70;99.90;;;;;;5083321;28;20202;-39
2022/04/23 05:39:34;;;;;;;25.77;16.03;;;6.80;99.90;;;;;;5096677;28;20205;-40
2022/04/23 05:42:01;;;;;;;22.07;15.13;;;6.80;99.90;;;;;;5102529;27;20587;-40
2022/04/23 05:44:28;;;;;;;20.77;15.07;;;6.90;99.90;;;;;;5098630;27;20190;-42
2022/04/23 05:46:55;;;;;;;23.47;15.73;;;7.00;99.90;;;;;;5095788;28;20198;-40
2022/04/23 05:49:22;;;;;;;25.23;15.50;;;7.10;99.90;;;;;;5094855;28;20187;-39
2022/04/23 05:51:48;;;;;;;22.80;15.13;;;7.20;99.90;;;;;;5095173;28;20221;-39
2022/04/23 05:54:16;;;;;;;19.73;14.60;;;7.20;99.90;;;;;;5095287;28;21035;-41
2022/04/23 05:56:44;;;;;;;19.27;14.33;;;7.30;99.90;;;;;;5101764;27;20201;-40
2022/04/23 05:59:10;;;;;;;20.33;14.97;;;7.40;99.90;;;;;;5093119;27;20623;-40
2022/04/23 06:01:37;;;;;;;24.10;15.47;;;7.40;99.90;;;;;;5101711;27;20201;-39
2022/04/23 06:04:05;;;;;;;19.90;14.17;;;7.50;99.90;;;;;;5099165;27;20280;-39
2022/04/23 06:06:32;;;;;;;19.83;14.40;;;7.50;99.90;;;;;;5088747;28;21650;-40
2022/04/23 06:08:58;;;;;;;20.47;13.87;;;7.60;99.90;;;;;;5095831;28;20672;-40
2022/04/23 06:11:26;;;;;;;18.27;13.43;;;7.70;99.90;;;;;;5079293;28;20308;-40
2022/04/23 06:13:53;;;;;;;19.93;13.57;;;7.80;99.90;;;;;;5102439;28;20255;-40
2022/04/23 06:16:20;;;;;;;20.43;14.33;;;7.90;99.90;;;;;;5098217;27;20194;-41
2022/04/23 06:18:46;;;;;;;18.27;13.27;;;7.90;99.90;;;;;;5091033;28;20205;-40
2022/04/23 06:21:13;;;;;;;17.23;13.33;;;8.00;99.90;;;;;;5086317;28;20193;-39
2022/04/23 06:23:40;;;;;;;20.87;13.93;;;8.10;99.90;;;;;;5093902;28;20596;-41
2022/04/23 06:26:07;;;;;;;15.60;12.53;;;8.20;99.90;;;;;;5088450;28;20599;-41
2022/04/23 06:28:35;;;;;;;16.33;13.10;;;8.30;99.90;;;;;;5086142;28;20692;-40
2022/04/23 06:31:02;;;;;;;14.70;12.27;;;8.40;99.90;;;;;;5097785;28;20201;-39
2022/04/23 06:33:29;;;;;;;16.97;12.47;;;8.50;99.90;;;;;;5104458;28;20269;-39
2022/04/23 06:35:56;;;;;;;16.87;13.50;;;8.60;99.90;;;;;;5095296;28;20193;-39
2022/04/23 06:38:22;;;;;;;14.03;11.87;;;8.60;99.90;;;;;;5086657;28;20767;-39
2022/04/23 06:40:49;;;;;;;15.47;12.37;;;8.70;99.90;;;;;;5094263;28;20198;-39
2022/04/23 06:43:16;;;;;;;15.60;11.90;;;8.80;99.90;;;;;;5075902;28;20220;-39
2022/04/23 06:45:46;;;;;;;18.90;11.80;;;8.90;99.90;;;;;;5091635;28;20525;-40
2022/04/23 06:48:13;;;;;;;12.63;10.60;;;9.10;99.90;;;;;;5088051;28;20197;-41
2022/04/23 06:50:39;;;;;;;16.93;12.07;;;9.20;99.90;;;;;;5091352;28;20198;-41
2022/04/23 06:53:06;;;;;;;11.97;10.17;;;9.30;99.90;;;;;;5084572;28;20233;-39
2022/04/23 06:55:33;;;;;;;13.87;10.53;;;9.40;99.90;;;;;;5089515;28;20258;-40
2022/04/23 06:58:00;;;;;;;11.90;10.70;;;9.50;99.90;;;;;;5090353;28;20198;-42
2022/04/23 07:00:27;;;;;;;12.40;9.47;;;9.60;99.90;;;;;;5094956;28;20192;-43
2022/04/23 07:02:55;;;;;;;11.13;10.00;;;9.80;99.90;;;;;;5092742;28;20217;-43
2022/04/23 07:05:22;;;;;;;10.23;9.07;;;9.80;99.90;;;;;;5085590;28;20266;-41
2022/04/23 07:07:57;;;;;;;11.43;9.90;;;10.00;99.90;;;;;;5077116;28;21620;-42
2022/04/23 07:10:25;;;;;;;9.83;8.87;;;10.00;99.90;;;;;;5097373;28;20193;-40
2022/04/23 07:12:52;;;;;;;12.63;9.13;;;10.20;99.90;;;;;;5078387;28;20275;-42
2022/04/23 07:15:19;;;;;;;10.70;9.10;;;10.20;99.90;;;;;;5079300;28;20205;-40
2022/04/23 07:17:46;;;;;;;10.77;8.50;;;10.30;99.90;;;;;;5092313;28;20192;-41
2022/04/23 07:20:16;;;;;;;11.27;8.77;;;10.50;99.90;;;;;;5087418;27;20871;-41
2022/04/23 07:24:02;;;;;;;9.27;8.07;;;10.60;99.90;;;;;;5079518;28;20217;-41
2022/04/23 07:25:31;;;;;;;8.97;8.17;;;10.70;99.90;;;;;;5078805;28;20298;-40
2022/04/23 07:27:58;;;;;;;11.63;8.30;;;10.70;99.90;;;;;;5080997;28;20200;-40
2022/04/23 07:30:25;;;;;;;9.00;7.33;;;10.80;99.90;;;;;;5098041;27;20190;-40
2022/04/23 07:32:53;;;;;;;7.77;6.97;;;11.00;99.90;;;;;;5107321;27;20216;-40
2022/04/23 07:38:27;;;;;;;8.17;7.10;;;11.20;99.90;;;;;;5085791;28;20213;-41
2022/04/23 07:40:54;;;;;;;7.73;6.93;;;11.30;99.90;;;;;;5090490;28;20826;-40
2022/04/23 07:43:21;;;;;;;8.30;7.47;;;11.40;99.90;;;;;;5086929;28;20225;-40
2022/04/23 07:45:48;;;;;;;7.37;6.67;;;11.50;99.90;;;;;;5074740;27;20269;-41
2022/04/23 07:48:16;;;;;;;6.83;6.23;;;11.60;99.90;;;;;;5100885;27;20202;-41
2022/04/23 07:50:45;;;;;;;6.87;6.27;;;11.70;99.90;;;;;;5093972;27;20209;-40
2022/04/23 07:53:12;;;;;;;8.73;6.23;;;11.80;99.90;;;;;;5086170;28;20229;-41
2022/04/23 07:55:40;;;;;;;6.13;5.53;;;12.00;99.90;;;;;;5087903;28;20236;-41
2022/04/23 07:58:09;;;;;;;5.80;5.30;;;12.10;99.90;;;;;;5086183;28;20201;-40
2022/04/23 08:00:36;;;;;;;5.67;5.17;;;12.20;99.90;;;;;;5100603;27;20204;-44
2022/04/23 08:03:04;;;;;;;5.70;5.20;;;12.40;99.90;;;;;;5094546;27;20212;-44
2022/04/23 08:05:31;;;;;;;5.67;5.17;;;12.50;99.90;;;;;;5104983;27;20221;-41
2022/04/23 08:08:00;;;;;;;5.83;5.33;;;12.70;99.90;;;;;;5083912;28;20921;-41
2022/04/23 08:10:27;;;;;;;5.47;5.00;;;12.70;99.90;;;;;;5087890;28;20246;-43
2022/04/23 08:12:55;;;;;;;4.90;4.50;;;;;;;;;;5096844;28;20319;-45
2022/04/23 08:15:22;;;;;;;4.93;4.43;;;13.00;99.90;;;;;;5085682;28;20581;-41
2022/04/23 08:17:49;;;;;;;4.70;4.30;;;13.20;99.90;;;;;;5091600;27;20520;-43
2022/04/23 08:20:16;;;;;;;4.70;4.30;;;13.30;99.90;;;;;;5101210;27;20728;-43
2022/04/23 08:22:42;;;;;;;4.07;3.77;;;13.40;99.90;;;;;;5105263;27;20297;-45
2022/04/23 08:25:11;;;;;;;4.27;3.97;;;13.50;99.90;;;;;;5085880;28;20231;-41
2022/04/23 08:27:51;;;;;;;3.80;3.50;;;13.70;99.90;;;;;;5089149;28;20206;-42
2022/04/23 08:33:00;;;;;;;4.03;3.70;;;13.80;99.30;;;;;;5088133;27;21061;-43
2022/04/23 08:35:26;;;;;;;3.90;3.60;;;13.90;99.20;;;;;;5120579;27;20194;-42
2022/04/23 08:37:54;;;;;;;3.70;3.03;;;14.10;98.20;;;;;;5088724;27;20681;-41
2022/04/23 08:40:22;;;;;;;3.47;3.17;;;14.00;96.90;;;;;;5085365;28;20567;-41
2022/04/23 08:42:50;;;;;;;3.77;3.23;;;14.20;97.10;;;;;;5085680;27;20301;-41
2022/04/23 08:45:17;;;;;;;3.43;3.13;;;14.20;97.90;;;;;;5085389;28;20296;-41
2022/04/23 08:47:46;;;;;;;4.00;3.70;;;14.10;97.00;;;;;;5081454;28;20202;-41
2022/04/23 08:50:12;;;;;;;3.93;3.63;;;14.20;99.90;;;;;;5088556;27;20259;-46
2022/04/23 08:52:42;;;;;;;3.53;3.23;;;14.30;95.00;;;;;;5088037;27;20554;-41
2022/04/23 08:55:14;;;;;;;3.63;3.33;;;14.40;94.70;;;;;;5085263;28;20218;-45
2022/04/23 08:57:44;;;;;;;3.83;3.53;;;14.50;95.60;;;;;;5094740;27;20574;-42
2022/04/23 09:00:14;;;;;;;4.00;3.63;;;14.60;93.80;;;;;;5091318;27;20197;-41
2022/04/23 09:02:42;;;;;;;4.30;3.90;;;14.60;93.50;;;;;;5095847;27;20225;-41
2022/04/23 09:05:10;;;;;;;3.90;3.60;;;14.70;92.30;;;;;;5084542;27;20198;-42
2022/04/23 09:07:36;;;;;;;3.60;3.40;;;14.70;91.80;;;;;;5093530;27;20190;-41
2022/04/23 09:10:05;;;;;;;3.63;3.33;;;14.60;92.60;;;;;;5083792;28;20693;-41
2022/04/23 09:12:32;;;;;;;3.50;3.20;;;14.80;91.20;;;;;;5087015;27;20231;-41
2022/04/23 09:23:43;;;;;;;4.17;3.87;;;15.00;90.50;;;;;;5093643;27;20698;-41
2022/04/23 09:26:17;;;;;;;3.47;3.27;;;15.10;88.70;;;;;;5084788;28;20661;-42
2022/04/23 09:29:14;;;;;;;3.23;3.03;;;15.10;88.20;;;;;;5092288;28;20220;-41
2022/04/23 09:31:43;;;;;;;3.40;3.20;;;15.10;86.40;;;;;;5101668;27;20212;-41
2022/04/23 09:34:17;;;;;;;3.17;2.97;;;15.20;85.60;;;;;;5084467;28;20240;-40
2022/04/23 09:36:55;;;;;;;3.77;3.47;;;15.20;83.60;;;;;;5084321;27;20961;-40
2022/04/23 09:39:31;;;;;;;3.50;3.30;;;15.20;84.50;;;;;;5097047;27;20204;-42
2022/04/23 09:42:15;;;;;;;3.57;3.27;;;15.40;82.80;;;;;;5082270;28;20586;-42
2022/04/23 09:44:42;;;;;;;3.33;3.13;;;15.50;82.40;;;;;;5086735;28;20204;-42
2022/04/23 09:47:11;;;;;;;3.30;3.10;;;15.50;82.30;;;;;;5084411;28;20273;-44
2022/04/23 09:49:40;;;;;;;3.67;3.37;;;15.40;81.20;;;;;;5074184;27;20205;-39
2022/04/23 09:52:08;;;;;;;3.53;3.23;;;15.50;81.80;;;;;;5115726;27;20303;-40
2022/04/23 09:54:36;;;;;;;4.17;3.70;;;15.60;80.70;;;;;;5098881;27;20229;-41
2022/04/23 09:57:04;;;;;;;3.73;3.43;;;15.60;79.80;;;;;;5083054;28;20197;-44
2022/04/23 09:59:31;;;;;;;3.57;3.33;;;15.60;80.30;;;;;;5086038;27;20219;-41
2022/04/23 10:01:59;;;;;;;3.23;3.03;;;15.60;80.10;;;;;;5087244;28;20216;-41
2022/04/23 10:04:29;;;;;;;3.70;3.50;;;15.70;79.80;;;;;;5083536;28;20205;-41
2022/04/23 10:06:57;;;;;;;3.90;3.60;;;15.70;77.30;;;;;;5085110;28;20220;-43
2022/04/23 10:09:28;;;;;;;3.53;3.20;;;15.60;77.80;;;;;;5089236;27;20201;-42
2022/04/23 10:12:02;;;;;;;3.07;2.87;;;15.50;78.00;;;;;;5081253;28;20214;-46
2022/04/23 10:14:33;;;;;;;3.67;3.37;;;15.60;76.90;;;;;;5081871;28;20224;-41
2022/04/23 10:17:00;;;;;;;7.80;3.37;;;15.60;74.60;;;;;;5081849;28;20205;-43
2022/04/23 10:19:30;;;;;;;2.90;2.70;;;15.60;75.40;;;;;;5085962;28;20222;-42
2022/04/23 10:22:03;;;;;;;3.70;3.40;;;15.80;74.80;;;;;;5079198;28;20226;-42
2022/04/23 10:24:37;;;;;;;3.37;3.17;;;15.90;73.80;;;;;;5098723;28;20247;-42
2022/04/23 10:27:07;;;;;;;3.17;2.97;;;15.80;73.20;;;;;;5088184;27;20197;-41
2022/04/23 10:29:34;;;;;;;3.30;3.10;;;15.70;74.30;;;;;;5091924;28;20654;-43
2022/04/23 10:32:20;;;;;;;3.40;3.20;;;15.60;73.30;;;;;;5087233;27;20225;-41
2022/04/23 10:34:49;;;;;;;3.17;2.97;;;15.60;73.20;;;;;;5095407;28;20213;-45
2022/04/23 10:37:18;;;;;;;3.67;3.37;;;15.70;74.10;;;;;;5087474;28;20212;-41
2022/04/23 10:39:45;;;;;;;3.17;2.97;;;15.80;74.30;;;;;;5096730;28;20300;-42
2022/04/23 10:42:15;;;;;;;3.30;3.10;;;15.90;72.00;;;;;;5099084;28;20214;-42
2022/04/23 10:44:43;;;;;;;4.57;4.17;;;15.90;72.60;;;;;;5087117;28;20194;-43
2022/04/23 10:47:16;;;;;;;3.37;3.10;;;16.10;70.60;;;;;;5084321;28;20217;-43
2022/04/23 10:49:43;;;;;;;3.57;3.30;;;16.20;70.30;;;;;;5079574;28;20380;-44
2022/04/23 10:52:31;;;;;;;3.93;3.63;;;16.30;70.30;;;;;;5085217;28;20304;-41
2022/04/23 10:55:01;;;;;;;3.77;3.53;;;16.40;71.00;;;;;;5100179;28;20300;-41
2022/04/23 10:57:28;;;;;;;3.10;2.90;;;16.60;68.60;;;;;;5098916;28;20195;-41
2022/04/23 10:59:55;;;;;;;3.37;3.17;;;16.70;71.50;;;;;;5090699;28;20926;-45
2022/04/23 11:02:33;;;;;;;3.20;3.00;;;17.00;70.50;;;;;;5081329;28;20228;-45
2022/04/23 11:13:26;;;;;;;3.53;3.30;;;17.20;69.00;;;;;;5091958;27;20220;-43
2022/04/23 11:16:13;;;;;;;3.33;3.10;;;17.30;67.80;;;;;;5090793;28;20225;-43
2022/04/23 11:18:41;;;;;;;3.80;3.50;;;17.30;66.70;;;;;;5089429;28;20267;-43
2022/04/23 11:21:19;;;;;;;5.40;3.50;;;17.10;66.90;;;;;;5092363;28;20244;-41
2022/04/23 11:23:48;;;;;;;3.47;3.20;;;16.90;67.20;;;;;;5098533;28;20212;-40
2022/04/23 11:26:17;;;;;;;3.40;3.20;;;16.80;67.70;;;;;;5078687;27;20209;-42
2022/04/23 11:28:44;;;;;;;3.00;2.90;;;16.70;68.40;;;;;;5100256;27;20287;-42
2022/04/23 11:31:12;;;;;;;3.40;3.20;;;16.60;67.70;;;;;;5089787;27;20207;-43
2022/04/23 11:33:51;;;;;;;3.90;3.50;;;16.50;67.60;;;;;;5094379;27;20460;-43
2022/04/23 11:36:18;;;;;;;3.60;3.40;;;16.30;68.40;;;;;;5091398;28;20198;-40
2022/04/23 11:38:47;;;;;;;3.50;3.27;;;16.20;69.20;;;;;;5091180;27;20254;-41
2022/04/23 11:41:30;;;;;;;3.67;3.47;;;16.30;69.30;;;;;;5089540;27;20212;-41
2022/04/23 11:43:57;;;;;;;3.37;3.07;;;16.30;67.50;;;;;;5095742;27;20204;-41
2022/04/23 11:46:25;;;;;;;3.20;3.00;;;16.30;68.10;;;;;;5088913;28;20192;-40
2022/04/23 11:48:52;;;;;;;3.33;3.13;;;16.40;69.00;;;;;;5095728;28;20210;-40
2022/04/23 11:51:20;;;;;;;3.30;3.10;;;16.60;68.30;;;;;;5084300;28;20201;-43
2022/04/23 11:53:55;;;;;;;3.10;2.80;;;16.70;66.80;;;;;;5088417;28;20280;-41
2022/04/23 11:56:27;;;;;;;3.80;3.50;;;16.80;66.90;;;;;;5080814;27;20236;-41
2022/04/23 11:58:56;;;;;;;4.70;4.30;;;17.00;67.20;;;;;;5090725;27;20200;-40
2022/04/23 12:01:24;;;;;;;7.20;6.50;;;17.10;68.10;;;;;;5098127;27;20190;-40
2022/04/23 12:03:52;;;;;;;6.77;5.97;;;17.20;71.30;;;;;;5098513;27;20210;-40
2022/04/23 12:06:19;;;;;;;7.17;6.47;;;17.20;71.40;;;;;;5086260;28;20202;-45
2022/04/23 12:08:46;;;;;;;6.80;6.20;;;17.30;72.30;;;;;;5089612;27;20201;-41
2022/04/23 12:11:22;;;;;;;7.57;6.87;;;17.20;71.90;;;;;;5098068;28;20211;-43
2022/04/23 12:13:50;;;;;;;7.30;6.60;;;17.00;71.50;;;;;;5077166;27;20201;-41
2022/04/23 12:16:34;;;;;;;7.53;6.83;;;16.80;73.00;;;;;;5087924;27;20214;-40
2022/04/23 12:19:03;;;;;;;7.30;6.60;;;16.80;73.80;;;;;;5092298;28;20190;-42
2022/04/23 12:21:31;;;;;;;7.10;6.50;;;16.70;73.60;;;;;;5084536;28;20282;-41
2022/04/23 12:23:58;;;;;;;7.03;6.43;;;16.70;74.50;;;;;;5087996;28;20201;-41
2022/04/23 12:26:30;;;;;;;7.20;6.50;;;16.50;74.50;;;;;;5093120;28;20831;-41
2022/04/23 12:43:23;;;;;;;7.63;6.93;;;16.70;75.50;;;;;;5083163;28;20237;-42
2022/04/23 12:45:50;;;;;;;6.70;6.20;;;16.80;75.40;;;;;;5096841;27;20211;-40
2022/04/23 12:48:17;;;;;;;7.93;7.10;;;17.10;75.80;;;;;;5084051;27;20204;-41
2022/04/23 12:50:46;;;;;;;6.57;5.97;;;17.10;74.70;;;;;;5087027;28;20630;-40
2022/04/23 12:53:28;;;;;;;7.00;6.40;;;16.90;75.40;;;;;;5087195;28;20594;-41
2022/04/23 12:55:55;;;;;;;7.27;6.57;;;17.00;76.40;;;;;;5088082;28;20220;-40
2022/04/23 12:58:23;;;;;;;7.27;6.60;;;17.20;76.90;;;;;;5082837;28;20876;-41
2022/04/23 13:00:51;;;;;;;8.20;7.30;;;17.10;75.40;;;;;;5102823;27;20232;-41
2022/04/23 13:03:28;;;;;;;7.80;7.10;;;17.00;76.00;;;;;;5094471;27;20221;-40
2022/04/23 13:05:55;;;;;;;7.00;6.40;;;17.00;77.20;;;;;;5092726;28;20208;-40
2022/04/23 13:14:00;;;;;;;8.13;6.80;;;17.70;74.10;;;;;;5074196;28;20292;-41
2022/04/23 13:16:28;;;;;;;7.27;6.67;;;17.90;73.40;;;;;;5086462;27;20202;-41
2022/04/23 13:18:56;;;;;;;7.77;6.90;;;17.70;73.70;;;;;;5092545;27;20570;-41
2022/04/23 13:21:25;;;;;;;8.93;7.40;;;17.70;73.10;;;;;;5088922;27;20193;-41
2022/04/23 13:23:52;;;;;;;7.13;6.53;;;17.90;72.40;;;;;;5092969;28;20206;-41
2022/04/23 13:26:20;;;;;;;8.87;7.27;;;17.90;71.40;;;;;;5075822;27;20199;-43
2022/04/23 13:28:47;;;;;;;7.03;6.53;;;18.00;72.00;;;;;;5090837;28;20313;-40
2022/04/23 13:31:16;;;;;;;8.77;7.90;;;18.30;70.30;;;;;;5084093;27;20205;-41
2022/04/23 13:33:43;;;;;;;7.30;6.53;;;18.50;69.00;;;;;;5098516;27;20213;-40
2022/04/23 13:36:10;;;;;;;7.20;6.60;;;18.30;69.40;;;;;;5082633;27;20693;-41